Time;durP1;ratioP1;P1;durP2;ratioP2;P2;SDS_P1;SDS_P2;PMS_P1;PMS_P2;Temp;Humidity;BMP_temperature;BMP_pressure;BME280_temperature;BME280_humidity;BME280_pressure;Samples;Min_cycle;Max_cycle;Signal;HPM_P1;HPM_P2
2022/04/20 00:01:05;;;;;;;4.07;1.60;;;8.10;97.20;;;;;;5010693;28;20032;-90
2022/04/20 00:03:31;;;;;;;3.10;1.63;;;8.10;97.40;;;;;;5014535;28;20037;-90
2022/04/20 00:05:57;;;;;;;8.20;2.55;;;8.10;97.50;;;;;;5008424;28;20049;-90
2022/04/20 00:08:22;;;;;;;5.07;2.15;;;8.00;97.80;;;;;;5013558;28;20036;-90
2022/04/20 00:10:48;;;;;;;5.28;1.65;;;8.00;98.10;;;;;;5014181;28;20030;-90
2022/04/20 00:13:13;;;;;;;6.45;2.45;;;8.00;98.40;;;;;;5009274;28;20040;-90
2022/04/20 00:15:39;;;;;;;7.53;2.55;;;8.00;98.70;;;;;;5012360;28;20033;-90
2022/04/20 00:18:04;;;;;;;4.88;2.28;;;8.00;98.90;;;;;;5013934;28;20163;-90
2022/04/20 00:20:30;;;;;;;6.85;2.60;;;8.00;99.20;;;;;;5012420;28;20478;-90
2022/04/20 00:22:55;;;;;;;4.60;2.17;;;8.10;99.30;;;;;;5015696;28;20128;-90
2022/04/20 00:25:21;;;;;;;6.03;2.60;;;8.00;99.30;;;;;;5009571;28;20033;-90
2022/04/20 00:27:47;;;;;;;6.32;2.47;;;8.10;99.60;;;;;;5010127;28;20033;-90
2022/04/20 00:30:13;;;;;;;4.43;2.58;;;8.10;99.60;;;;;;5010058;28;20038;-90
2022/04/20 00:32:39;;;;;;;9.65;3.03;;;8.10;99.60;;;;;;5010486;28;20029;-90
2022/04/20 00:35:10;;;;;;;5.18;2.90;;;8.10;99.80;;;;;;5028683;28;20079;-89
2022/04/20 00:37:37;;;;;;;7.45;3.45;;;8.10;99.90;;;;;;5032635;28;20048;-90
2022/04/20 00:40:03;;;;;;;8.45;3.00;;;8.20;99.90;;;;;;5027221;28;20018;-90
2022/04/20 00:42:31;;;;;;;5.40;2.88;;;8.20;99.90;;;;;;5011611;28;20038;-89
2022/04/20 00:44:57;;;;;;;7.45;3.17;;;8.20;99.90;;;;;;5011532;28;20029;-90
2022/04/20 00:47:24;;;;;;;7.10;2.67;;;8.20;99.90;;;;;;5018998;28;20104;-89
2022/04/20 00:49:52;;;;;;;5.43;3.03;;;8.20;99.90;;;;;;5008563;28;20030;-89
2022/04/20 00:52:18;;;;;;;7.65;3.30;;;8.10;99.90;;;;;;5010887;28;20393;-90
2022/04/20 00:54:44;;;;;;;5.55;3.15;;;8.10;99.90;;;;;;5013654;28;20030;-89
2022/04/20 00:57:09;;;;;;;4.18;2.75;;;8.10;99.90;;;;;;5010131;28;20025;-90
2022/04/20 00:59:36;;;;;;;6.97;3.10;;;8.00;99.90;;;;;;5015774;28;20485;-90
2022/04/20 01:02:03;;;;;;;5.75;3.13;;;8.10;99.90;;;;;;5007932;28;20037;-89
2022/04/20 01:04:30;;;;;;;5.07;3.05;;;8.10;99.90;;;;;;5014330;28;20041;-90
2022/04/20 01:07:00;;;;;;;6.55;3.30;;;8.10;99.90;;;;;;5031305;28;20110;-90
2022/04/20 01:09:26;;;;;;;6.05;2.90;;;8.10;99.90;;;;;;5010595;28;20109;-90
2022/04/20 01:11:52;;;;;;;8.70;3.50;;;8.10;99.90;;;;;;5008563;28;20072;-89
2022/04/20 01:14:18;;;;;;;6.82;3.20;;;8.10;99.90;;;;;;5011784;28;20065;-90
2022/04/20 01:16:43;;;;;;;6.68;2.90;;;8.10;99.90;;;;;;5016085;28;20080;-90
2022/04/20 01:19:09;;;;;;;4.65;2.83;;;8.10;99.90;;;;;;5007066;28;20061;-89
2022/04/20 01:21:34;;;;;;;5.07;3.35;;;8.00;99.90;;;;;;5005363;28;20124;-90
2022/04/20 01:24:00;;;;;;;7.95;4.07;;;8.00;99.90;;;;;;5013922;28;20053;-89
2022/04/20 01:26:27;;;;;;;5.35;3.22;;;8.00;99.90;;;;;;5011790;28;20044;-90
2022/04/20 01:28:53;;;;;;;7.28;3.35;;;7.90;99.90;;;;;;5013101;28;20033;-89
2022/04/20 01:31:19;;;;;;;6.15;2.90;;;7.90;99.90;;;;;;5009252;28;20044;-90
2022/04/20 01:33:45;;;;;;;8.38;3.40;;;7.80;99.90;;;;;;5010842;28;20053;-89
2022/04/20 01:36:11;;;;;;;5.57;3.60;;;7.80;99.90;;;;;;5007168;28;20041;-90
2022/04/20 01:38:38;;;;;;;5.80;3.20;;;7.80;99.90;;;;;;5009368;28;20405;-89
2022/04/20 01:41:04;;;;;;;5.80;3.35;;;7.80;99.90;;;;;;5011524;28;20026;-89
2022/04/20 01:43:30;;;;;;;7.82;3.55;;;7.80;99.90;;;;;;5007272;28;20033;-90
2022/04/20 01:45:55;;;;;;;6.38;3.33;;;7.80;99.90;;;;;;5012588;28;20025;-89
2022/04/20 01:48:21;;;;;;;8.43;3.92;;;7.80;99.90;;;;;;5011870;28;20032;-88
2022/04/20 01:53:31;;;;;;;6.93;3.72;;;7.70;99.90;;;;;;5028759;28;20044;-89
2022/04/20 01:55:56;;;;;;;8.00;3.30;;;7.70;99.90;;;;;;5011481;28;20116;-90
2022/04/20 01:58:22;;;;;;;6.53;3.65;;;7.70;99.90;;;;;;5007354;28;20029;-90
2022/04/20 02:00:48;;;;;;;6.28;3.95;;;7.60;99.90;;;;;;5010009;28;20038;-90
2022/04/20 02:03:13;;;;;;;6.22;3.42;;;7.60;99.90;;;;;;5012131;28;20059;-90
2022/04/20 02:05:39;;;;;;;6.30;3.75;;;7.70;99.90;;;;;;5012614;28;20520;-90
2022/04/20 02:08:05;;;;;;;6.00;3.55;;;7.60;99.90;;;;;;5008948;28;20071;-90
2022/04/20 02:10:31;;;;;;;5.80;3.25;;;7.60;99.90;;;;;;5011078;28;20022;-90
2022/04/20 02:12:56;;;;;;;6.93;3.50;;;7.60;99.90;;;;;;5011624;28;20038;-90
2022/04/20 02:15:22;;;;;;;6.13;3.53;;;7.60;99.90;;;;;;5007340;28;20040;-90
2022/04/20 02:17:48;;;;;;;6.53;3.70;;;7.60;99.90;;;;;;5014464;28;20029;-90
2022/04/20 02:20:14;;;;;;;5.68;3.40;;;7.60;99.90;;;;;;5009442;28;20097;-89
2022/04/20 02:22:40;;;;;;;5.93;3.38;;;7.60;99.90;;;;;;5010959;28;20045;-90
2022/04/20 02:25:07;;;;;;;6.80;3.58;;;7.60;99.90;;;;;;5008206;28;20037;-90
2022/04/20 02:27:32;;;;;;;6.55;3.53;;;7.60;99.90;;;;;;5016147;28;20120;-89
2022/04/20 02:29:58;;;;;;;10.75;4.43;;;7.60;99.90;;;;;;5007685;28;20626;-90
2022/04/20 02:32:23;;;;;;;6.57;3.25;;;7.60;99.90;;;;;;5012979;28;20029;-90
2022/04/20 02:34:49;;;;;;;8.00;3.40;;;7.60;99.90;;;;;;5009660;28;20025;-90
2022/04/20 02:37:15;;;;;;;7.32;3.50;;;7.60;99.90;;;;;;5011431;28;20029;-90
2022/04/20 02:39:42;;;;;;;5.72;3.53;;;7.60;99.90;;;;;;5012177;28;20033;-89
2022/04/20 02:42:09;;;;;;;6.38;3.45;;;7.60;99.90;;;;;;5004265;28;20033;-89
2022/04/20 02:44:35;;;;;;;5.43;3.40;;;7.60;99.90;;;;;;5014760;28;20021;-90
2022/04/20 02:47:01;;;;;;;5.15;2.72;;;7.60;99.90;;;;;;5006654;28;20041;-89
2022/04/20 02:49:26;;;;;;;8.00;3.33;;;7.50;99.90;;;;;;5014268;28;20508;-89
2022/04/20 02:51:52;;;;;;;6.70;3.30;;;7.50;99.90;;;;;;5009818;28;20033;-89
2022/04/20 02:54:17;;;;;;;6.13;3.42;;;7.50;99.90;;;;;;5010061;28;20026;-90
2022/04/20 02:56:43;;;;;;;5.97;3.53;;;7.50;99.90;;;;;;5012999;28;20021;-89
2022/04/20 02:59:09;;;;;;;7.35;3.30;;;7.50;99.90;;;;;;5004098;28;20473;-90
2022/04/20 03:01:34;;;;;;;5.57;2.95;;;7.50;99.90;;;;;;5009162;28;20030;-90
2022/04/20 03:04:00;;;;;;;6.72;3.35;;;7.40;99.90;;;;;;5003862;28;20042;-90
2022/04/20 03:06:27;;;;;;;5.72;3.53;;;7.40;99.90;;;;;;5008866;28;20072;-90
2022/04/20 03:08:53;;;;;;;7.45;3.50;;;7.40;99.90;;;;;;5010295;28;20030;-90
2022/04/20 03:11:19;;;;;;;6.20;3.42;;;7.30;99.90;;;;;;5008253;28;20032;-89
2022/04/20 03:13:45;;;;;;;4.82;2.92;;;7.30;99.90;;;;;;5011036;28;20482;-90
2022/04/20 03:16:11;;;;;;;6.38;3.78;;;7.30;99.90;;;;;;5005822;28;20059;-90
2022/04/20 03:18:36;;;;;;;4.82;2.78;;;7.20;99.90;;;;;;5011674;28;20494;-90
2022/04/20 03:21:02;;;;;;;7.13;3.30;;;7.20;99.90;;;;;;5007137;28;20038;-90
2022/04/20 03:23:29;;;;;;;5.28;3.05;;;7.10;99.90;;;;;;5009601;28;20037;-89
2022/04/20 03:25:55;;;;;;;6.32;2.70;;;7.10;99.90;;;;;;5006101;28;20006;-90
2022/04/20 03:28:20;;;;;;;5.35;2.90;;;7.10;99.90;;;;;;5007718;28;20027;-89
2022/04/20 03:30:46;;;;;;;7.72;3.03;;;7.00;99.90;;;;;;5011735;28;20026;-89
2022/04/20 03:33:12;;;;;;;5.22;3.05;;;7.00;99.90;;;;;;5002124;28;20057;-91
2022/04/20 03:35:38;;;;;;;5.45;2.38;;;7.00;99.90;;;;;;5005752;28;20025;-90
2022/04/20 03:38:08;;;;;;;9.50;3.25;;;7.00;99.90;;;;;;5007773;28;20023;-89
2022/04/20 03:40:33;;;;;;;4.90;2.92;;;7.00;99.90;;;;;;5008806;28;20021;-89
2022/04/20 03:42:59;;;;;;;7.90;3.08;;;6.90;99.90;;;;;;5006512;28;20073;-90
2022/04/20 03:45:25;;;;;;;9.55;3.67;;;7.00;99.90;;;;;;5005480;28;20025;-90
2022/04/20 03:47:50;;;;;;;6.03;3.40;;;7.00;99.90;;;;;;5006207;28;20050;-88
2022/04/20 03:50:16;;;;;;;5.50;2.70;;;7.00;99.90;;;;;;5007575;28;20824;-89
2022/04/20 03:52:42;;;;;;;7.32;3.47;;;6.90;99.90;;;;;;5006140;28;20033;-88
2022/04/20 03:55:08;;;;;;;5.90;2.50;;;6.90;99.90;;;;;;5006893;28;20371;-89
2022/04/20 03:57:34;;;;;;;6.60;3.40;;;6.80;99.90;;;;;;5007634;28;20022;-89
2022/04/20 03:59:59;;;;;;;4.50;2.83;;;6.80;99.90;;;;;;5006792;28;20092;-89
2022/04/20 04:02:25;;;;;;;5.38;2.90;;;6.80;99.90;;;;;;5009830;28;20034;-88
2022/04/20 04:04:50;;;;;;;5.47;3.40;;;6.80;99.90;;;;;;5003841;28;20061;-89
2022/04/20 04:07:16;;;;;;;6.45;3.78;;;6.70;99.90;;;;;;5007442;28;20022;-89
2022/04/20 04:09:42;;;;;;;7.03;3.47;;;6.70;99.90;;;;;;5005750;28;20025;-89
2022/04/20 04:12:09;;;;;;;5.15;3.10;;;6.70;99.90;;;;;;5009831;28;20034;-88
2022/04/20 04:14:41;;;;;;;5.90;2.85;;;6.60;99.90;;;;;;5002496;28;20072;-88
2022/04/20 04:17:08;;;;;;;;;;;6.70;99.90;;;;;;5008039;28;20028;-89
2022/04/20 04:19:35;;;;;;;7.93;3.17;;;6.60;99.90;;;;;;5009011;28;19952;-89
2022/04/20 04:22:02;;;;;;;5.00;2.88;;;6.60;99.90;;;;;;5010422;28;20141;-89
2022/04/20 04:24:37;;;;;;;7.30;2.90;;;6.60;99.90;;;;;;5003810;28;20033;-89
2022/04/20 04:27:05;;;;;;;6.03;3.47;;;6.60;99.90;;;;;;5005548;28;20034;-89
2022/04/20 04:29:31;;;;;;;4.55;2.78;;;6.60;99.90;;;;;;5006738;28;20494;-88
2022/04/20 04:31:58;;;;;;;5.57;2.45;;;6.60;99.90;;;;;;5007918;28;20034;-88
2022/04/20 04:34:23;;;;;;;5.20;2.90;;;6.60;99.90;;;;;;5009489;28;20026;-88
2022/04/20 04:36:51;;;;;;;4.72;2.67;;;6.50;99.90;;;;;;5009308;28;20390;-88
2022/04/20 04:39:18;;;;;;;5.65;3.05;;;6.50;99.90;;;;;;5003322;28;20028;-88
2022/04/20 04:41:46;;;;;;;5.00;2.25;;;6.50;99.90;;;;;;5006807;28;20032;-89
2022/04/20 04:44:12;;;;;;;3.95;2.42;;;6.50;99.90;;;;;;5012728;28;20124;-87
2022/04/20 04:49:21;;;;;;;4.95;2.50;;;6.50;99.90;;;;;;5011311;28;20037;-88
2022/04/20 04:51:47;;;;;;;4.85;3.20;;;6.50;99.90;;;;;;4997703;28;20018;-87
2022/04/20 04:54:13;;;;;;;5.55;2.60;;;6.50;99.90;;;;;;5006289;28;20409;-88
2022/04/20 04:56:38;;;;;;;8.80;3.17;;;6.60;99.90;;;;;;5002924;28;20108;-88
2022/04/20 04:59:04;;;;;;;4.32;2.58;;;6.60;99.90;;;;;;5007365;28;20505;-88
2022/04/20 05:01:29;;;;;;;5.15;2.85;;;6.60;99.90;;;;;;5003118;28;20034;-88
2022/04/20 05:03:55;;;;;;;7.13;2.35;;;6.60;99.90;;;;;;5010697;28;20045;-87
2022/04/20 05:06:21;;;;;;;8.20;3.03;;;6.60;99.90;;;;;;5011040;28;20436;-88
2022/04/20 05:08:46;;;;;;;4.43;2.30;;;6.70;99.90;;;;;;5006797;28;20025;-88
2022/04/20 05:11:12;;;;;;;4.25;2.38;;;6.70;99.90;;;;;;5008417;28;20389;-88
2022/04/20 05:13:38;;;;;;;7.22;2.58;;;6.70;99.90;;;;;;5008323;28;20029;-88
2022/04/20 05:16:04;;;;;;;4.47;2.88;;;6.80;99.90;;;;;;5010980;28;20371;-89
2022/04/20 05:18:29;;;;;;;4.55;2.38;;;6.80;99.90;;;;;;5008701;28;20109;-89
2022/04/20 05:20:55;;;;;;;5.05;2.75;;;6.80;99.90;;;;;;5013710;28;20466;-89
2022/04/20 05:23:20;;;;;;;4.60;2.30;;;6.80;99.90;;;;;;5014126;28;20046;-90
2022/04/20 05:25:46;;;;;;;5.13;2.25;;;6.90;99.90;;;;;;5006293;28;20040;-88
2022/04/20 05:28:12;;;;;;;5.63;2.30;;;6.90;99.90;;;;;;5012341;28;20021;-88
2022/04/20 05:30:37;;;;;;;7.47;2.38;;;7.00;99.90;;;;;;5005241;28;20147;-89
2022/04/20 05:33:03;;;;;;;6.80;2.15;;;7.00;99.90;;;;;;5004251;28;20114;-89
2022/04/20 05:35:29;;;;;;;6.80;2.67;;;7.00;99.90;;;;;;5012270;28;20052;-90
2022/04/20 05:43:23;;;;;;;5.57;2.55;;;7.10;99.90;;;;;;5026846;28;20175;-88
2022/04/20 05:45:49;;;;;;;7.38;2.72;;;7.20;99.90;;;;;;5008907;28;20055;-89
2022/04/20 05:48:14;;;;;;;4.88;2.35;;;7.20;99.90;;;;;;5009950;28;20032;-89
2022/04/20 05:50:40;;;;;;;4.57;2.65;;;7.30;99.90;;;;;;5012347;28;20031;-90
2022/04/20 05:53:06;;;;;;;4.53;2.33;;;7.30;99.90;;;;;;5006048;28;20061;-90
2022/04/20 05:55:31;;;;;;;8.23;2.20;;;7.40;99.90;;;;;;5013223;28;20110;-90
2022/04/20 05:57:57;;;;;;;4.40;2.33;;;7.50;99.90;;;;;;5011228;28;20124;-89
2022/04/20 06:00:22;;;;;;;5.63;2.40;;;7.60;99.90;;;;;;5006204;28;20099;-89
2022/04/20 06:02:48;;;;;;;5.15;2.30;;;7.70;99.90;;;;;;5015890;28;20041;-89
2022/04/20 06:05:14;;;;;;;4.82;2.03;;;7.80;99.90;;;;;;5016599;28;20049;-89
2022/04/20 06:07:39;;;;;;;5.20;2.40;;;7.80;99.90;;;;;;5015653;28;20414;-90
2022/04/20 06:10:06;;;;;;;4.72;2.50;;;7.90;99.90;;;;;;5005921;28;20021;-90
2022/04/20 06:12:32;;;;;;;5.03;2.30;;;8.00;99.90;;;;;;5012803;28;20021;-89
2022/04/20 06:14:58;;;;;;;5.90;1.92;;;8.10;99.90;;;;;;5017180;28;20029;-88
2022/04/20 06:17:24;;;;;;;4.68;2.42;;;8.20;99.90;;;;;;4996473;28;20029;-86
2022/04/20 06:19:49;;;;;;;9.88;2.20;;;8.30;99.90;;;;;;5013592;28;20033;-86
2022/04/20 06:22:15;;;;;;;4.97;1.90;;;8.30;99.90;;;;;;5016044;28;20041;-87
2022/04/20 06:24:40;;;;;;;3.60;1.80;;;8.50;99.90;;;;;;5003576;28;20125;-88
2022/04/20 06:27:07;;;;;;;4.60;2.10;;;8.60;99.90;;;;;;5007615;28;20112;-86
2022/04/20 06:29:34;;;;;;;11.93;2.28;;;8.60;99.70;;;;;;5010785;28;20022;-88
2022/04/20 06:32:01;;;;;;;2.80;1.90;;;8.70;99.30;;;;;;4997414;28;20061;-88
2022/04/20 06:34:26;;;;;;;6.35;1.77;;;8.80;99.10;;;;;;5015994;28;20605;-87
2022/04/20 06:36:52;;;;;;;5.90;1.83;;;8.90;98.90;;;;;;5015569;28;20116;-88
2022/04/20 06:39:17;;;;;;;4.13;1.98;;;9.00;98.80;;;;;;5026573;28;20045;-88
2022/04/20 06:41:43;;;;;;;4.78;2.15;;;9.10;98.60;;;;;;5024768;28;20413;-88
2022/04/20 06:44:09;;;;;;;4.18;1.35;;;9.20;98.50;;;;;;5014711;28;20025;-86
2022/04/20 06:46:34;;;;;;;4.63;2.05;;;9.30;98.30;;;;;;5017317;28;20030;-88
2022/04/20 06:49:00;;;;;;;5.85;1.90;;;9.40;98.10;;;;;;5009952;28;20030;-89
2022/04/20 06:51:26;;;;;;;3.75;1.80;;;9.50;97.80;;;;;;5028160;28;20488;-90
2022/04/20 06:59:20;;;;;;;6.93;2.17;;;9.80;96.90;;;;;;5035773;28;20500;-89
2022/04/20 07:01:46;;;;;;;4.70;1.70;;;9.90;96.60;;;;;;5015299;28;20034;-89
2022/04/20 07:04:12;;;;;;;5.03;2.03;;;10.00;96.50;;;;;;4999491;28;20046;-90
2022/04/20 07:06:37;;;;;;;5.20;2.20;;;10.20;96.30;;;;;;5019186;28;20087;-89
2022/04/20 07:09:03;;;;;;;3.28;1.88;;;10.20;95.80;;;;;;5009604;28;20022;-89
2022/04/20 07:11:28;;;;;;;5.82;2.00;;;10.30;95.40;;;;;;5012241;28;20026;-90
2022/04/20 07:13:57;;;;;;;5.90;1.70;;;10.40;95.00;;;;;;5016177;28;20501;-89
2022/04/20 07:16:23;;;;;;;2.65;1.77;;;10.40;94.50;;;;;;5011155;28;20465;-89
2022/04/20 07:18:49;;;;;;;5.32;1.55;;;10.40;94.30;;;;;;5017355;28;20018;-89
2022/04/20 07:21:15;;;;;;;6.40;2.15;;;10.50;94.20;;;;;;5000412;28;20055;-89
2022/04/20 07:23:40;;;;;;;5.15;1.88;;;10.60;93.90;;;;;;5002324;28;20038;-90
2022/04/20 07:26:06;;;;;;;4.93;2.08;;;10.60;93.60;;;;;;5005842;28;20026;-90
2022/04/20 07:28:31;;;;;;;3.20;1.80;;;10.70;93.40;;;;;;5018589;28;20029;-89
2022/04/20 07:30:57;;;;;;;4.70;1.80;;;10.80;93.20;;;;;;5016472;28;20130;-89
2022/04/20 07:33:24;;;;;;;5.47;1.60;;;10.80;92.80;;;;;;5022289;28;20024;-90
2022/04/20 07:35:49;;;;;;;4.53;2.20;;;10.90;92.50;;;;;;5014736;28;20026;-89
2022/04/20 07:38:15;;;;;;;2.92;1.65;;;10.90;92.50;;;;;;5012425;28;20457;-89
2022/04/20 07:40:40;;;;;;;5.13;1.73;;;11.00;92.30;;;;;;5015746;28;20084;-90
2022/04/20 07:43:06;;;;;;;6.13;2.10;;;11.10;92.20;;;;;;5008640;28;20092;-90
2022/04/20 07:45:32;;;;;;;4.63;2.17;;;11.20;92.10;;;;;;5009523;28;20088;-90
2022/04/20 07:47:58;;;;;;;5.28;1.70;;;11.30;92.10;;;;;;5018110;28;20029;-90
2022/04/20 07:50:24;;;;;;;5.88;1.63;;;11.40;91.90;;;;;;5021152;28;20025;-89
2022/04/20 07:53:00;;;;;;;3.38;1.60;;;11.50;91.60;;;;;;5016573;28;20078;-88
2022/04/20 07:55:32;;;;;;;4.80;1.67;;;11.60;91.10;;;;;;5005315;28;20033;-90
2022/04/20 07:57:59;;;;;;;4.68;1.77;;;11.70;90.60;;;;;;5012009;28;20159;-90
2022/04/20 08:00:25;;;;;;;3.33;1.40;;;11.60;90.50;;;;;;5015590;28;20033;-89
2022/04/20 08:03:06;;;;;;;3.45;1.52;;;11.70;90.10;;;;;;5018603;28;20485;-90
2022/04/20 08:05:31;;;;;;;3.42;1.63;;;11.80;90.00;;;;;;5002108;28;20099;-89
2022/04/20 08:07:57;;;;;;;2.80;1.77;;;11.80;89.20;;;;;;5015422;28;20030;-89
2022/04/20 08:10:22;;;;;;;5.40;2.10;;;11.90;88.30;;;;;;5010108;28;20022;-89
2022/04/20 08:12:48;;;;;;;4.40;1.80;;;11.90;88.30;;;;;;5009982;28;20036;-89
2022/04/20 08:15:13;;;;;;;3.40;1.10;;;12.00;88.90;;;;;;5012601;28;20025;-89
2022/04/20 08:17:39;;;;;;;3.97;1.75;;;12.20;88.80;;;;;;5009265;28;20048;-89
2022/04/20 08:20:06;;;;;;;3.22;1.83;;;12.30;87.40;;;;;;5019219;28;20025;-88
2022/04/20 08:22:32;;;;;;;8.35;1.55;;;12.30;86.10;;;;;;5020793;28;20135;-87
2022/04/20 08:24:59;;;;;;;4.72;1.58;;;12.30;85.40;;;;;;5023801;28;20120;-89
2022/04/20 08:27:25;;;;;;;3.90;1.52;;;12.30;85.00;;;;;;5019971;28;20029;-89
2022/04/20 08:29:51;;;;;;;3.17;1.52;;;12.40;84.40;;;;;;5003800;28;20025;-89
2022/04/20 08:32:18;;;;;;;3.08;1.40;;;12.40;84.20;;;;;;5026504;28;20113;-88
2022/04/20 08:34:45;;;;;;;2.42;1.15;;;12.40;84.80;;;;;;5030266;28;20032;-89
2022/04/20 08:37:11;;;;;;;8.18;1.50;;;12.60;85.50;;;;;;5007771;28;20072;-89
2022/04/20 08:39:39;;;;;;;3.20;1.20;;;12.80;84.50;;;;;;4999718;28;20057;-89
2022/04/20 08:42:06;;;;;;;3.35;1.25;;;13.00;84.40;;;;;;5007847;28;20030;-90
2022/04/20 08:44:37;;;;;;;3.83;1.30;;;13.10;83.00;;;;;;5006082;28;20021;-89
2022/04/20 08:47:04;;;;;;;6.70;1.33;;;13.20;80.60;;;;;;5017468;28;20225;-89
2022/04/20 08:49:30;;;;;;;2.50;1.10;;;13.20;80.60;;;;;;5013996;28;20504;-89
2022/04/20 08:54:44;;;;;;;3.45;1.27;;;13.40;78.60;;;;;;5034690;28;20106;-89
2022/04/20 08:57:16;;;;;;;1.90;1.00;;;13.50;78.40;;;;;;5014119;28;20053;-89
2022/04/20 08:59:48;;;;;;;2.65;1.30;;;13.60;78.70;;;;;;5014299;28;20029;-89
2022/04/20 09:02:15;;;;;;;2.85;1.10;;;13.80;77.70;;;;;;5009364;28;20398;-88
2022/04/20 09:04:41;;;;;;;3.92;1.02;;;13.90;77.30;;;;;;5011939;28;20117;-89
2022/04/20 09:07:08;;;;;;;5.65;1.40;;;13.90;76.30;;;;;;5019103;28;20061;-88
2022/04/20 09:09:34;;;;;;;5.43;1.40;;;14.00;76.80;;;;;;5010424;28;20021;-88
2022/04/20 09:11:59;;;;;;;6.13;1.60;;;14.10;77.00;;;;;;5012526;28;20034;-89
2022/04/20 09:14:28;;;;;;;2.47;1.10;;;14.30;76.00;;;;;;5004795;28;20469;-89
2022/04/20 09:16:55;;;;;;;4.50;1.35;;;14.40;75.90;;;;;;5015907;28;20531;-88
2022/04/20 09:19:25;;;;;;;4.38;1.00;;;14.40;74.00;;;;;;5018836;28;20029;-89
2022/04/20 09:21:54;;;;;;;4.60;1.23;;;14.40;73.00;;;;;;5012626;28;20040;-87
2022/04/20 09:24:20;;;;;;;3.67;1.15;;;14.30;73.20;;;;;;5021780;28;20112;-88
2022/04/20 09:26:54;;;;;;;4.47;1.08;;;14.40;72.80;;;;;;4999876;28;20108;-88
2022/04/20 09:29:20;;;;;;;4.03;1.02;;;14.50;71.50;;;;;;5016375;28;20025;-87
2022/04/20 09:31:48;;;;;;;3.20;1.00;;;14.50;71.90;;;;;;5032857;28;20458;-88
2022/04/20 09:37:17;;;;;;;3.92;0.80;;;14.60;70.70;;;;;;5017211;28;20052;-88
2022/04/20 09:39:47;;;;;;;3.70;1.02;;;14.60;70.30;;;;;;5015292;28;20022;-88
2022/04/20 09:42:13;;;;;;;2.65;1.00;;;14.70;70.50;;;;;;5010864;28;20095;-88
2022/04/20 09:45:12;;;;;;;3.25;1.02;;;14.80;70.70;;;;;;5013058;28;20033;-87
2022/04/20 09:50:27;;;;;;;2.65;0.90;;;15.00;70.70;;;;;;5026261;28;20121;-87
2022/04/20 09:53:02;;;;;;;1.63;0.70;;;15.20;67.80;;;;;;5012182;28;20033;-88
2022/04/20 09:55:31;;;;;;;2.53;0.90;;;15.20;68.20;;;;;;5005916;28;20104;-88
2022/04/20 09:58:20;;;;;;;4.25;0.90;;;15.20;67.10;;;;;;5002418;28;20025;-87
2022/04/20 10:00:47;;;;;;;2.70;0.63;;;15.30;67.20;;;;;;5016379;28;20013;-88
2022/04/20 10:03:27;;;;;;;1.98;0.82;;;15.30;66.50;;;;;;5016600;28;20447;-88
2022/04/20 10:05:53;;;;;;;1.88;0.77;;;15.30;65.10;;;;;;5014334;28;20494;-88
2022/04/20 10:08:20;;;;;;;1.33;0.60;;;15.30;64.80;;;;;;4991423;28;20056;-88
2022/04/20 10:10:48;;;;;;;5.00;1.00;;;15.40;65.50;;;;;;5001261;28;20022;-89
2022/04/20 10:13:14;;;;;;;2.08;0.70;;;15.50;64.60;;;;;;5013364;28;20057;-88
2022/04/20 10:18:28;;;;;;;2.75;0.68;;;15.50;63.00;;;;;;5033487;28;20041;-88
2022/04/20 10:20:58;;;;;;;1.75;0.60;;;15.60;61.10;;;;;;4997477;28;20398;-88
2022/04/20 10:23:25;;;;;;;1.65;0.50;;;15.50;59.80;;;;;;5006160;28;20056;-89
2022/04/20 10:25:54;;;;;;;1.98;0.70;;;15.50;60.40;;;;;;5015999;28;20121;-89
2022/04/20 10:28:42;;;;;;;2.13;0.68;;;15.60;60.60;;;;;;5015995;28;20022;-89
2022/04/20 10:31:19;;;;;;;2.60;0.65;;;15.60;60.90;;;;;;5015335;28;20440;-90
2022/04/20 10:33:45;;;;;;;1.95;0.60;;;15.70;60.90;;;;;;5000910;28;20042;-88
2022/04/20 10:36:15;;;;;;;3.75;0.68;;;15.80;60.60;;;;;;4998997;28;20061;-89
2022/04/20 10:38:44;;;;;;;2.90;0.60;;;16.00;60.50;;;;;;5016099;28;20036;-88
2022/04/20 10:41:11;;;;;;;1.50;0.70;;;16.10;60.40;;;;;;5015894;28;20029;-89
2022/04/20 10:43:44;;;;;;;2.45;0.60;;;16.20;60.10;;;;;;5015902;28;20033;-87
2022/04/20 10:46:11;;;;;;;1.80;0.60;;;16.20;59.30;;;;;;5015543;28;20044;-89
2022/04/20 10:48:58;;;;;;;2.00;0.60;;;16.10;58.80;;;;;;5005830;28;20063;-88
2022/04/20 10:51:38;;;;;;;5.78;0.57;;;16.20;58.70;;;;;;5015669;28;20080;-90
2022/04/20 10:54:23;;;;;;;3.15;0.70;;;16.20;57.40;;;;;;5015799;28;20385;-88
2022/04/20 10:56:49;;;;;;;5.25;0.98;;;16.20;57.80;;;;;;4999729;28;20088;-89
2022/04/20 10:59:15;;;;;;;3.65;0.98;;;16.20;57.60;;;;;;4997027;28;20032;-89
2022/04/20 11:01:59;;;;;;;2.00;0.80;;;16.20;58.00;;;;;;5015216;28;20029;-88
2022/04/20 11:04:46;;;;;;;4.28;0.70;;;16.20;58.30;;;;;;5003048;28;20106;-90
2022/04/20 11:07:26;;;;;;;3.92;0.90;;;16.30;58.00;;;;;;5015134;28;20101;-88
2022/04/20 11:10:05;;;;;;;5.20;0.60;;;16.20;58.20;;;;;;5016289;28;20057;-89
2022/04/20 11:21:06;;;;;;;4.68;0.80;;;16.20;57.80;;;;;;5032816;28;20079;-89
2022/04/20 11:23:54;;;;;;;2.50;0.80;;;16.40;57.90;;;;;;4995985;28;20042;-89
2022/04/20 11:26:24;;;;;;;2.78;0.90;;;16.40;57.60;;;;;;4996416;28;20482;-88
2022/04/20 11:28:51;;;;;;;2.83;0.70;;;16.40;57.50;;;;;;4996618;28;20030;-89
2022/04/20 11:31:17;;;;;;;2.03;1.08;;;16.40;57.30;;;;;;4999079;28;20493;-89
2022/04/20 11:33:43;;;;;;;2.00;0.82;;;16.50;57.80;;;;;;4999335;28;20034;-88
2022/04/20 11:36:13;;;;;;;2.65;0.80;;;16.60;57.70;;;;;;5003928;28;20025;-86
2022/04/20 11:38:44;;;;;;;2.63;1.05;;;16.70;57.70;;;;;;5016931;28;20493;-89
2022/04/20 11:41:11;;;;;;;4.35;0.98;;;16.70;57.50;;;;;;5015703;28;20409;-88
2022/04/20 11:43:38;;;;;;;4.45;0.88;;;16.70;58.20;;;;;;5018987;28;20037;-88
2022/04/20 11:46:04;;;;;;;2.72;0.80;;;16.80;57.90;;;;;;5018238;28;20477;-89
2022/04/20 11:48:30;;;;;;;4.10;0.80;;;16.80;57.80;;;;;;5019012;28;20120;-90
2022/04/20 11:50:57;;;;;;;2.03;0.63;;;16.90;58.20;;;;;;5014285;28;20053;-88
2022/04/20 11:53:32;;;;;;;2.13;0.90;;;17.00;58.10;;;;;;5001670;28;20030;-89
2022/04/20 11:55:58;;;;;;;3.08;0.90;;;16.90;56.80;;;;;;5020769;28;20029;-89
2022/04/20 11:58:23;;;;;;;2.83;1.23;;;16.80;57.60;;;;;;5013165;28;20026;-89
2022/04/20 12:01:00;;;;;;;2.85;1.00;;;16.80;57.40;;;;;;5034692;28;20075;-89
2022/04/20 12:03:32;;;;;;;4.05;0.88;;;16.90;57.70;;;;;;5035078;28;20034;-89
2022/04/20 12:06:03;;;;;;;2.42;0.95;;;16.90;57.80;;;;;;5000445;28;20052;-89
2022/04/20 12:08:33;;;;;;;2.50;1.30;;;16.90;58.00;;;;;;5025437;28;20082;-89
2022/04/20 12:11:10;;;;;;;4.30;0.90;;;16.90;57.10;;;;;;5017097;28;20029;-89
2022/04/20 12:13:37;;;;;;;5.72;1.42;;;17.00;57.30;;;;;;5020157;28;20025;-88
2022/04/20 12:16:04;;;;;;;3.13;1.20;;;17.00;57.20;;;;;;5009332;28;20493;-87
2022/04/20 12:18:33;;;;;;;2.22;1.00;;;17.10;58.20;;;;;;5006857;28;20465;-88
2022/04/20 12:20:59;;;;;;;1.88;0.95;;;17.10;56.80;;;;;;5004485;28;20032;-87
2022/04/20 12:23:34;;;;;;;2.88;1.02;;;17.10;56.60;;;;;;5023559;28;20044;-88
2022/04/20 12:26:03;;;;;;;2.42;1.00;;;17.10;57.70;;;;;;5013063;28;20040;-88
2022/04/20 12:28:42;;;;;;;4.97;1.08;;;17.20;57.90;;;;;;5015401;28;20022;-88
2022/04/20 12:31:09;;;;;;;2.97;0.90;;;17.20;56.90;;;;;;5000269;28;20032;-89
2022/04/20 12:33:38;;;;;;;3.55;1.13;;;17.30;57.30;;;;;;5025944;28;20073;-88
2022/04/20 12:36:08;;;;;;;3.70;1.48;;;17.20;56.60;;;;;;5013758;28;20127;-89
2022/04/20 12:38:50;;;;;;;1.92;0.95;;;17.20;57.20;;;;;;5013116;28;20022;-89
2022/04/20 12:41:35;;;;;;;2.63;1.13;;;17.30;57.40;;;;;;5009446;28;20026;-89
2022/04/20 12:44:02;;;;;;;2.88;0.80;;;17.30;57.50;;;;;;5019550;28;20037;-88
2022/04/20 12:46:35;;;;;;;2.70;1.08;;;17.30;57.40;;;;;;5022292;28;20042;-89
2022/04/20 12:49:01;;;;;;;3.75;1.08;;;17.30;57.00;;;;;;5030059;28;20032;-88
2022/04/20 12:51:27;;;;;;;4.07;1.50;;;17.40;57.00;;;;;;5012545;28;20026;-90
2022/04/20 12:53:55;;;;;;;3.17;1.10;;;17.40;56.70;;;;;;5024450;28;20039;-90
2022/04/20 13:02:03;;;;;;;3.08;1.05;;;17.30;57.10;;;;;;5026852;28;20563;-89
2022/04/20 13:04:29;;;;;;;1.83;0.77;;;17.50;57.70;;;;;;5013872;28;20046;-89
2022/04/20 13:06:55;;;;;;;3.17;1.10;;;17.70;58.10;;;;;;5017261;28;20034;-89
2022/04/20 13:09:21;;;;;;;2.78;1.00;;;17.80;57.40;;;;;;5017224;28;20091;-89
2022/04/20 13:11:47;;;;;;;2.83;1.10;;;17.90;57.30;;;;;;5026864;28;20030;-90
2022/04/20 13:14:12;;;;;;;2.60;1.42;;;18.00;58.00;;;;;;5012879;28;20021;-89
2022/04/20 13:16:38;;;;;;;2.25;0.90;;;18.20;56.80;;;;;;5012755;28;20096;-89
2022/04/20 13:19:04;;;;;;;3.92;1.00;;;18.30;57.00;;;;;;5017161;28;20032;-89
2022/04/20 13:21:30;;;;;;;2.13;1.05;;;18.30;57.20;;;;;;5014240;28;20021;-89
2022/04/20 13:23:56;;;;;;;1.88;0.90;;;18.30;55.80;;;;;;5018398;28;20033;-90
2022/04/20 13:29:06;;;;;;;4.15;1.08;;;18.30;56.50;;;;;;5035348;28;20044;-90
2022/04/20 13:31:32;;;;;;;2.80;1.38;;;18.30;56.90;;;;;;5012450;28;20029;-89
2022/04/20 13:33:58;;;;;;;3.40;1.20;;;18.30;56.10;;;;;;5014787;28;20033;-87
2022/04/20 13:36:24;;;;;;;2.42;1.17;;;18.30;56.20;;;;;;5015686;28;20113;-89
2022/04/20 13:38:50;;;;;;;5.45;1.35;;;18.20;56.40;;;;;;5014487;28;20034;-91